CheckWX is a tool to help pilots better visualize weather data.  It is not intended as a substitute for an official pre-flight weather briefing.

14:01:29 UTC

CYCD METAR
Nanaimo Airport
Nanaimo, Canada
Current

1 hour ago

CYCD 251300Z 27007KT 30SM FEW250 04/M00 A3028 RMK CI2 SLP255
Observed
Apr-25 @ 13:00 UTC
Wind
  • 270° at 7 KTS
Visibility
30 SM
Flight Rules
VFR
Cloud Levels
  • Few at 25,000' AGL
Temperature
C / 39°F
Dewpoint
C / 32°F
Humidity
75%
Altimeter
30.28" Hg
Pressure
1025.42 hPa
Previous

10 hours ago

CYCD 250400Z 24005KT 15SM SKC 09/02 A3031 RMK LAST STFD OBS/NEXT 251300Z SLP267
Observed
Apr-25 @ 04:00 UTC
Wind
  • 240° at 5 KTS
Visibility
15 SM
Flight Rules
VFR
Cloud Levels
  • Clear skies
Temperature
C / 48°F
Dewpoint
C / 36°F
Humidity
62%
Altimeter
30.31" Hg
Pressure
1026.42 hPa
Previous

11 hours ago

CYCD 250300Z 00000KT 30SM FEW060 SCT230 12/01 A3031 RMK SC2CI1 SLP266
Observed
Apr-25 @ 03:00 UTC
Visibility
30 SM
Flight Rules
VFR
Cloud Levels
  • Few at 6,000' AGL
  • Scattered at 23,000' AGL
Temperature
12°C / 54°F
Dewpoint
C / 34°F
Humidity
47%
Altimeter
30.31" Hg
Pressure
1026.42 hPa